Time;durP1;ratioP1;P1;durP2;ratioP2;P2;SDS_P1;SDS_P2;PMS_P1;PMS_P2;Temp;Humidity;BMP_temperature;BMP_pressure;BME280_temperature;BME280_humidity;BME280_pressure;Samples;Min_cycle;Max_cycle;Signal;HPM_P1;HPM_P2
2022/08/28 00:00:40;;;;;;;21.37;15.03;;;15.20;99.90;;;;;;5032456;28;19956;-62
2022/08/28 00:03:09;;;;;;;18.58;14.40;;;15.30;99.90;;;;;;5032545;28;20048;-62
2022/08/28 00:05:38;;;;;;;18.38;14.77;;;15.30;99.90;;;;;;5033206;28;20546;-62
2022/08/28 00:08:07;;;;;;;16.88;12.98;;;15.30;99.90;;;;;;5032706;28;20048;-62
2022/08/28 00:10:34;;;;;;;18.00;14.02;;;15.30;99.90;;;;;;5040239;28;20581;-60
2022/08/28 00:13:01;;;;;;;20.40;14.52;;;15.40;99.90;;;;;;5052024;28;20048;-61
2022/08/28 00:15:31;;;;;;;17.55;13.82;;;15.40;99.90;;;;;;5052950;28;20052;-61
2022/08/28 00:17:59;;;;;;;15.70;12.13;;;15.40;99.90;;;;;;5051085;28;20110;-61
2022/08/28 00:20:28;;;;;;;13.52;11.52;;;15.40;99.90;;;;;;5053134;28;20044;-61
2022/08/28 00:22:55;;;;;;;19.65;13.27;;;15.50;99.90;;;;;;5051728;28;20040;-62
2022/08/28 00:25:24;;;;;;;19.52;13.15;;;15.50;99.90;;;;;;5051804;28;20718;-62
2022/08/28 00:27:53;;;;;;;19.42;14.63;;;15.50;99.90;;;;;;5052310;28;20049;-61
2022/08/28 00:30:26;;;;;;;21.25;14.38;;;15.50;99.90;;;;;;5051195;28;20044;-62
2022/08/28 00:32:55;;;;;;;15.02;11.40;;;15.50;99.90;;;;;;5052801;28;20629;-62
2022/08/28 00:35:22;;;;;;;14.00;10.48;;;15.50;99.90;;;;;;5050919;28;20052;-62
2022/08/28 00:37:51;;;;;;;16.17;11.38;;;15.50;99.90;;;;;;5050645;28;20040;-62
2022/08/28 00:40:21;;;;;;;14.38;11.55;;;15.50;99.90;;;;;;5052944;28;20090;-61
2022/08/28 00:43:00;;;;;;;15.85;12.10;;;15.50;99.90;;;;;;5052532;28;20037;-62
2022/08/28 00:45:28;;;;;;;14.10;10.75;;;15.50;99.90;;;;;;5052987;28;20067;-62
2022/08/28 00:47:55;;;;;;;19.05;13.90;;;15.50;99.90;;;;;;5053366;28;20032;-61
2022/08/28 00:50:26;;;;;;;17.00;12.55;;;15.50;99.90;;;;;;5050887;28;20047;-61
2022/08/28 00:52:58;;;;;;;16.00;12.18;;;15.50;99.90;;;;;;5041627;28;20041;-61
2022/08/28 00:55:27;;;;;;;18.50;13.32;;;15.50;99.90;;;;;;5031917;28;20288;-62
2022/08/28 00:57:59;;;;;;;18.00;14.18;;;15.50;99.90;;;;;;5032353;28;20053;-62
2022/08/28 01:00:28;;;;;;;15.95;12.70;;;15.50;99.90;;;;;;5033191;28;20076;-61
2022/08/28 01:02:55;;;;;;;13.82;11.50;;;15.50;99.90;;;;;;5029985;28;20538;-62
2022/08/28 01:05:22;;;;;;;19.92;13.95;;;15.50;99.90;;;;;;5032531;28;20839;-61
2022/08/28 01:07:50;;;;;;;17.17;12.48;;;15.50;99.90;;;;;;5032385;28;20045;-62
2022/08/28 01:10:22;;;;;;;18.13;12.43;;;15.50;99.90;;;;;;5037311;28;20731;-61
2022/08/28 01:12:49;;;;;;;17.73;13.95;;;15.50;99.90;;;;;;5052039;28;20056;-61
2022/08/28 01:15:19;;;;;;;16.73;13.27;;;15.50;99.90;;;;;;5051863;28;20559;-61
2022/08/28 01:17:49;;;;;;;17.15;13.07;;;15.60;99.90;;;;;;5051982;28;20117;-61
2022/08/28 01:20:20;;;;;;;17.88;13.45;;;15.60;99.90;;;;;;5050428;28;20048;-62
2022/08/28 01:23:13;;;;;;;15.48;11.95;;;15.50;99.90;;;;;;5051937;28;20044;-62
2022/08/28 01:25:41;;;;;;;14.10;12.60;;;15.50;99.90;;;;;;5051919;28;20045;-61
2022/08/28 01:28:11;;;;;;;17.92;13.38;;;15.50;99.90;;;;;;5052377;28;20151;-62
2022/08/28 01:30:41;;;;;;;23.48;12.77;;;15.50;99.90;;;;;;5052273;28;20036;-62
2022/08/28 01:33:08;;;;;;;15.40;12.05;;;15.60;99.90;;;;;;5051955;28;20049;-62
2022/08/28 01:35:42;;;;;;;14.18;10.38;;;15.50;99.90;;;;;;5052314;28;20048;-61
2022/08/28 01:38:09;;;;;;;15.13;11.48;;;15.50;99.90;;;;;;5051416;28;20052;-62
2022/08/28 01:40:39;;;;;;;13.05;10.57;;;15.50;99.90;;;;;;5051640;28;20040;-62
2022/08/28 01:43:09;;;;;;;17.00;11.68;;;15.50;99.90;;;;;;5055109;28;20056;-61
2022/08/28 01:45:36;;;;;;;14.75;12.02;;;15.50;99.90;;;;;;5055892;28;20045;-62
2022/08/28 01:48:05;;;;;;;14.40;9.75;;;15.40;99.90;;;;;;5053991;28;20129;-61
2022/08/28 01:50:33;;;;;;;14.40;11.77;;;15.40;99.90;;;;;;5055839;28;20052;-61
2022/08/28 01:53:00;;;;;;;11.95;10.25;;;15.40;99.90;;;;;;5051528;28;20053;-60
2022/08/28 01:55:27;;;;;;;12.32;11.02;;;15.40;99.90;;;;;;5051687;28;20098;-61
2022/08/28 01:57:55;;;;;;;15.48;11.88;;;15.40;99.90;;;;;;5055728;28;20063;-61
2022/08/28 02:00:26;;;;;;;16.25;12.23;;;15.30;99.90;;;;;;5055281;28;20048;-62
2022/08/28 02:02:55;;;;;;;13.50;10.23;;;15.30;99.90;;;;;;5055530;28;20040;-61
2022/08/28 02:05:24;;;;;;;11.90;10.30;;;15.30;99.90;;;;;;5055190;28;20705;-61
2022/08/28 02:07:51;;;;;;;14.02;9.70;;;15.30;99.90;;;;;;5055573;28;20036;-61
2022/08/28 02:10:23;;;;;;;11.70;9.98;;;15.20;99.90;;;;;;5055705;28;20037;-62
2022/08/28 02:12:51;;;;;;;12.13;10.02;;;15.20;99.90;;;;;;5055136;28;20052;-61
2022/08/28 02:15:18;;;;;;;19.00;12.98;;;15.20;99.90;;;;;;5053269;28;20070;-62
2022/08/28 02:17:49;;;;;;;16.42;11.35;;;15.10;99.90;;;;;;5054053;28;20787;-61
2022/08/28 02:20:16;;;;;;;12.65;10.52;;;15.10;99.90;;;;;;5053928;28;20106;-61
2022/08/28 02:22:44;;;;;;;16.60;10.90;;;15.10;99.90;;;;;;5054623;28;20068;-62
2022/08/28 02:25:11;;;;;;;14.05;10.70;;;15.00;99.90;;;;;;5055157;28;20075;-62
2022/08/28 02:27:38;;;;;;;12.73;9.80;;;15.00;99.90;;;;;;5054773;28;20153;-60
2022/08/28 02:30:08;;;;;;;15.60;9.25;;;15.00;99.90;;;;;;5054669;28;20046;-62
2022/08/28 02:32:35;;;;;;;11.63;9.93;;;14.90;99.90;;;;;;5055027;28;20045;-61
2022/08/28 02:35:04;;;;;;;13.98;10.68;;;14.90;99.90;;;;;;5052888;28;20777;-61
2022/08/28 02:37:38;;;;;;;18.50;12.35;;;14.90;99.90;;;;;;5052953;28;20112;-61
2022/08/28 02:40:05;;;;;;;15.40;11.82;;;14.90;99.90;;;;;;5054649;28;20036;-62
2022/08/28 02:42:33;;;;;;;13.20;9.60;;;15.00;99.90;;;;;;5054547;28;20043;-61
2022/08/28 02:45:00;;;;;;;13.75;10.75;;;14.90;99.90;;;;;;5055369;28;20044;-61
2022/08/28 02:47:27;;;;;;;15.98;11.57;;;14.90;99.90;;;;;;5054895;28;20048;-61
2022/08/28 02:49:54;;;;;;;12.88;10.63;;;15.00;99.90;;;;;;5054870;28;20037;-61
2022/08/28 02:52:22;;;;;;;;;;;15.00;99.90;;;;;;5054512;28;20106;-61
2022/08/28 02:54:49;;;;;;;14.40;11.60;;;15.00;99.90;;;;;;5042648;28;20420;-62
2022/08/28 02:57:16;;;;;;;11.63;10.27;;;15.00;99.90;;;;;;5033291;28;20049;-61
2022/08/28 02:59:43;;;;;;;13.70;11.05;;;15.00;99.90;;;;;;5034758;28;20099;-61
2022/08/28 03:02:10;;;;;;;12.30;10.38;;;15.00;99.90;;;;;;5034217;28;20056;-61
2022/08/28 03:04:37;;;;;;;14.13;10.80;;;15.00;99.90;;;;;;5033666;28;20132;-61
2022/08/28 03:07:06;;;;;;;13.77;10.63;;;15.00;99.90;;;;;;5034298;28;20041;-61
2022/08/28 03:09:33;;;;;;;15.32;11.18;;;15.10;99.90;;;;;;5034155;28;20052;-62
2022/08/28 03:11:59;;;;;;;;;;;15.00;99.90;;;;;;5053307;28;20126;-61
2022/08/28 03:14:26;;;;;;;24.25;11.95;;;15.00;99.90;;;;;;5053628;28;19932;-61
2022/08/28 03:16:53;;;;;;;;;;;15.10;99.90;;;;;;5055095;28;20048;-61
2022/08/28 03:19:20;;;;;;;15.48;11.93;;;15.10;99.90;;;;;;5051172;28;20683;-62
2022/08/28 03:21:47;;;;;;;22.38;14.57;;;15.10;99.90;;;;;;5053633;28;20071;-61
2022/08/28 03:24:18;;;;;;;17.55;13.45;;;15.10;99.90;;;;;;5054110;28;20076;-61
2022/08/28 03:26:45;;;;;;;;;;;15.10;99.90;;;;;;5052715;28;20044;-61
2022/08/28 03:29:12;;;;;;;17.17;13.53;;;15.10;99.90;;;;;;5053963;28;20209;-62
2022/08/28 03:31:38;;;;;;;18.30;13.30;;;15.10;99.90;;;;;;5053472;28;20036;-61
2022/08/28 03:34:05;;;;;;;;;;;15.10;99.90;;;;;;5052952;28;20045;-61
2022/08/28 03:36:32;;;;;;;15.57;13.00;;;15.10;99.90;;;;;;5051724;28;19924;-62
2022/08/28 03:39:02;;;;;;;14.80;11.35;;;15.10;99.90;;;;;;5053393;28;20048;-61
2022/08/28 03:41:30;;;;;;;17.63;10.55;;;15.10;99.90;;;;;;5053794;28;20071;-61
2022/08/28 03:43:59;;;;;;;14.10;10.88;;;15.00;99.90;;;;;;5053786;28;20047;-61
2022/08/28 03:46:28;;;;;;;23.50;13.50;;;15.00;99.90;;;;;;5055355;28;20036;-61
2022/08/28 03:48:55;;;;;;;12.73;10.40;;;15.00;99.90;;;;;;5052052;28;20040;-60
2022/08/28 03:51:25;;;;;;;11.18;9.65;;;15.00;99.90;;;;;;5053608;28;20040;-61
2022/08/28 03:53:57;;;;;;;13.90;10.57;;;15.00;99.90;;;;;;5053789;28;20052;-62
2022/08/28 03:56:25;;;;;;;15.80;11.75;;;15.00;99.90;;;;;;5038041;28;20048;-61
2022/08/28 03:58:56;;;;;;;15.85;12.25;;;15.10;99.90;;;;;;5034470;28;20489;-61
2022/08/28 04:01:23;;;;;;;14.50;11.73;;;15.00;99.90;;;;;;5034011;28;20178;-62
2022/08/28 04:03:50;;;;;;;13.93;10.93;;;15.10;99.90;;;;;;5033692;28;20045;-61
2022/08/28 04:06:18;;;;;;;18.17;11.40;;;15.00;99.90;;;;;;5032579;28;20052;-60
2022/08/28 04:08:46;;;;;;;16.90;10.48;;;15.00;99.90;;;;;;5033546;28;20040;-60
2022/08/28 04:11:13;;;;;;;12.50;10.77;;;15.00;99.90;;;;;;5046247;28;20051;-64
2022/08/28 04:13:40;;;;;;;;;;;15.10;99.90;;;;;;5054333;28;20052;-60
2022/08/28 04:16:11;;;;;;;17.02;10.88;;;15.10;99.90;;;;;;5054048;28;20585;-60
2022/08/28 04:18:40;;;;;;;14.52;11.02;;;15.10;99.90;;;;;;5053659;28;20052;-60
2022/08/28 04:21:10;;;;;;;12.68;10.10;;;15.10;99.90;;;;;;5051688;28;20036;-61
2022/08/28 04:23:39;;;;;;;16.50;11.13;;;15.10;99.90;;;;;;5053305;28;20043;-59
2022/08/28 04:26:11;;;;;;;16.77;13.73;;;15.10;99.90;;;;;;5051899;28;20037;-60
2022/08/28 04:28:38;;;;;;;14.80;10.07;;;15.10;99.90;;;;;;5053708;28;20121;-60
2022/08/28 04:31:07;;;;;;;16.15;11.90;;;15.10;99.90;;;;;;5035703;28;20087;-61
2022/08/28 04:33:34;;;;;;;12.65;10.48;;;15.10;99.90;;;;;;5051766;28;20110;-60
2022/08/28 04:36:04;;;;;;;15.23;11.23;;;15.10;99.90;;;;;;5053105;28;20036;-59
2022/08/28 04:38:31;;;;;;;16.30;11.98;;;15.20;99.90;;;;;;5053871;28;20033;-59
2022/08/28 04:40:58;;;;;;;18.52;12.35;;;15.10;99.90;;;;;;5052069;28;20039;-60
2022/08/28 04:43:25;;;;;;;15.10;11.80;;;15.20;99.90;;;;;;5053053;28;20519;-59
2022/08/28 04:45:52;;;;;;;;;;;15.20;99.90;;;;;;5054555;28;20105;-59
2022/08/28 04:48:19;;;;;;;16.10;11.63;;;15.20;99.90;;;;;;5035370;28;19924;-59
2022/08/28 04:50:46;;;;;;;;;;;15.20;99.90;;;;;;5053603;28;20040;-60
2022/08/28 04:53:15;;;;;;;;;;;15.20;99.90;;;;;;5052479;28;20015;-59
2022/08/28 04:55:45;;;;;;;16.15;11.98;;;15.20;99.90;;;;;;5053705;28;20505;-60
2022/08/28 04:58:21;;;;;;;19.60;12.23;;;15.20;99.90;;;;;;5030578;28;20124;-60
2022/08/28 05:00:51;;;;;;;16.08;10.43;;;15.20;99.90;;;;;;5032560;28;20126;-60
2022/08/28 05:03:19;;;;;;;12.90;10.25;;;15.20;99.90;;;;;;5033227;28;20114;-61
2022/08/28 05:05:49;;;;;;;14.30;11.68;;;15.20;99.90;;;;;;5032120;28;20152;-60
2022/08/28 05:08:17;;;;;;;14.25;11.77;;;15.20;99.90;;;;;;5032660;28;20714;-61
2022/08/28 05:10:45;;;;;;;18.50;11.90;;;15.30;99.90;;;;;;5041286;28;20041;-61
2022/08/28 05:13:14;;;;;;;14.57;11.95;;;15.30;99.90;;;;;;5051599;28;20272;-60
2022/08/28 05:15:43;;;;;;;17.05;12.45;;;15.30;99.90;;;;;;5053646;28;20560;-60
2022/08/28 05:18:12;;;;;;;13.02;10.63;;;15.30;99.90;;;;;;5055742;28;20545;-60
2022/08/28 05:20:43;;;;;;;24.27;13.40;;;15.30;99.90;;;;;;5054153;28;20056;-61
2022/08/28 05:23:11;;;;;;;26.08;14.43;;;15.30;99.90;;;;;;5035879;28;20126;-59
2022/08/28 05:25:42;;;;;;;19.60;14.15;;;15.30;99.90;;;;;;5052237;28;20768;-62
2022/08/28 05:28:10;;;;;;;19.38;14.88;;;15.30;99.90;;;;;;5037037;28;20037;-61
2022/08/28 05:30:39;;;;;;;22.15;15.07;;;15.30;99.90;;;;;;5036200;28;20071;-61
2022/08/28 05:33:08;;;;;;;19.77;13.43;;;15.30;99.90;;;;;;5036569;28;20045;-60
2022/08/28 05:35:37;;;;;;;17.92;13.13;;;15.40;99.90;;;;;;5039633;28;20045;-61
2022/08/28 05:38:05;;;;;;;16.25;12.55;;;15.40;99.90;;;;;;5056724;28;21033;-61
2022/08/28 05:40:33;;;;;;;19.02;14.10;;;15.40;99.90;;;;;;5055651;28;20123;-61
2022/08/28 05:43:00;;;;;;;17.20;12.32;;;15.40;99.90;;;;;;5055314;28;20602;-61
2022/08/28 05:45:26;;;;;;;;;;;15.40;99.90;;;;;;5040487;28;20118;-61
2022/08/28 05:47:53;;;;;;;18.67;12.63;;;15.50;99.90;;;;;;5056388;28;20516;-61
2022/08/28 05:50:20;;;;;;;21.23;12.95;;;15.50;99.90;;;;;;5056924;28;20175;-61
2022/08/28 05:52:47;;;;;;;;;;;15.50;99.90;;;;;;5056498;28;20102;-61
2022/08/28 05:55:14;;;;;;;22.20;14.75;;;15.50;99.90;;;;;;5055924;28;19931;-57
2022/08/28 05:57:41;;;;;;;18.73;13.75;;;15.60;99.90;;;;;;5047664;28;20040;-57
2022/08/28 06:00:12;;;;;;;18.88;13.98;;;15.60;99.90;;;;;;5036158;28;20143;-57
2022/08/28 06:02:40;;;;;;;16.73;12.07;;;15.70;99.90;;;;;;5036717;28;20052;-57
2022/08/28 06:05:08;;;;;;;15.00;11.93;;;15.80;99.90;;;;;;5036681;28;20549;-57
2022/08/28 06:07:39;;;;;;;18.90;14.07;;;15.80;99.90;;;;;;5036688;28;20033;-58
2022/08/28 06:10:07;;;;;;;15.13;11.82;;;15.90;99.90;;;;;;5021826;28;20033;-57
2022/08/28 06:12:37;;;;;;;17.20;12.48;;;15.90;99.90;;;;;;5038729;28;20068;-57
2022/08/28 06:15:04;;;;;;;17.98;13.02;;;16.00;99.90;;;;;;5055337;28;20040;-57
2022/08/28 06:17:31;;;;;;;15.93;12.27;;;16.00;99.90;;;;;;5037795;28;20054;-58
2022/08/28 06:19:58;;;;;;;14.52;10.52;;;16.00;99.90;;;;;;5056836;28;20056;-58
2022/08/28 06:22:25;;;;;;;;;;;16.00;99.90;;;;;;5055779;28;20051;-58
2022/08/28 06:24:52;;;;;;;13.32;9.93;;;16.10;99.90;;;;;;5054165;28;20023;-57
2022/08/28 06:27:19;;;;;;;14.73;10.82;;;16.10;99.90;;;;;;5054085;28;20041;-56
2022/08/28 06:29:46;;;;;;;18.77;14.27;;;16.10;99.90;;;;;;5056325;28;20052;-58
2022/08/28 06:32:13;;;;;;;14.38;11.40;;;16.20;99.90;;;;;;5037989;28;20037;-58
2022/08/28 06:34:40;;;;;;;14.85;11.32;;;16.20;99.90;;;;;;5054496;28;20052;-56
2022/08/28 06:37:08;;;;;;;14.90;10.57;;;16.20;99.90;;;;;;5055745;28;20048;-58
2022/08/28 06:39:35;;;;;;;15.07;11.57;;;16.20;99.90;;;;;;5022099;28;20055;-58
2022/08/28 06:42:02;;;;;;;11.23;9.43;;;16.30;99.90;;;;;;5055511;28;20351;-58
2022/08/28 06:44:31;;;;;;;15.38;11.82;;;16.30;99.90;;;;;;5056320;28;20033;-58
2022/08/28 06:46:59;;;;;;;81.18;16.20;;;16.30;99.90;;;;;;5055711;28;20040;-57
2022/08/28 06:49:26;;;;;;;15.60;11.43;;;16.30;99.90;;;;;;5055174;28;20131;-58
2022/08/28 06:51:52;;;;;;;15.88;11.55;;;16.30;99.90;;;;;;5055483;28;20098;-58
2022/08/28 06:54:19;;;;;;;12.60;10.73;;;16.40;99.90;;;;;;5055837;28;20079;-58
2022/08/28 06:56:50;;;;;;;12.60;10.13;;;16.40;99.90;;;;;;5054678;28;20871;-58
2022/08/28 06:59:17;;;;;;;15.95;12.45;;;16.50;99.90;;;;;;5041491;28;20566;-57
2022/08/28 07:01:44;;;;;;;19.80;12.80;;;16.50;99.90;;;;;;5017470;28;20056;-57
2022/08/28 07:04:13;;;;;;;17.92;13.98;;;16.60;99.90;;;;;;5033954;28;20521;-58
2022/08/28 07:06:44;;;;;;;17.15;13.93;;;16.60;99.90;;;;;;5035963;28;20557;-58
2022/08/28 07:09:13;;;;;;;22.35;16.67;;;16.70;99.90;;;;;;5036055;28;20095;-61
2022/08/28 07:11:44;;;;;;;28.08;18.08;;;16.70;99.90;;;;;;5051641;28;20040;-60
2022/08/28 07:14:11;;;;;;;25.52;18.10;;;16.80;99.90;;;;;;5035743;28;20061;-61
2022/08/28 07:16:38;;;;;;;20.90;15.27;;;16.90;99.90;;;;;;5050421;28;20450;-60
2022/08/28 07:19:07;;;;;;;22.02;17.15;;;16.90;99.90;;;;;;5034553;28;20041;-60
2022/08/28 07:21:38;;;;;;;26.08;17.60;;;17.00;99.90;;;;;;5043685;28;20123;-59
2022/08/28 07:24:07;;;;;;;26.70;18.48;;;17.10;99.90;;;;;;5054042;28;20037;-60
2022/08/28 07:26:34;;;;;;;23.92;17.67;;;17.20;99.90;;;;;;5053519;28;20552;-60
2022/08/28 07:29:06;;;;;;;31.50;18.50;;;17.30;99.90;;;;;;5054136;28;20045;-61
2022/08/28 07:31:43;;;;;;;24.58;16.95;;;17.40;99.90;;;;;;5053695;28;20161;-60
2022/08/28 07:34:12;;;;;;;24.17;17.92;;;17.40;99.90;;;;;;5054220;28;20724;-60
2022/08/28 07:36:39;;;;;;;17.13;14.30;;;17.50;99.90;;;;;;5053848;28;20037;-61
2022/08/28 07:39:08;;;;;;;22.58;17.05;;;17.60;99.90;;;;;;5051781;28;20546;-61
2022/08/28 07:41:38;;;;;;;19.67;14.85;;;17.70;99.90;;;;;;5054618;28;20052;-60
2022/08/28 07:46:53;;;;;;;20.27;16.42;;;17.90;99.90;;;;;;5054383;28;20325;-61
2022/08/28 07:49:21;;;;;;;19.80;14.98;;;18.00;99.90;;;;;;5053558;28;20044;-63
2022/08/28 07:51:48;;;;;;;23.20;16.67;;;18.10;99.90;;;;;;5054724;28;20050;-63
2022/08/28 07:54:20;;;;;;;20.95;15.30;;;18.30;99.90;;;;;;5053069;28;20045;-60
2022/08/28 07:56:46;;;;;;;18.95;15.07;;;18.40;99.90;;;;;;5054423;28;20052;-61
2022/08/28 07:59:14;;;;;;;19.65;14.05;;;18.40;99.90;;;;;;5048368;28;20746;-61
2022/08/28 08:01:45;;;;;;;20.67;15.07;;;18.40;99.90;;;;;;5032441;28;20132;-63
2022/08/28 08:04:14;;;;;;;22.48;14.23;;;18.50;99.90;;;;;;5033004;28;20098;-63
2022/08/28 08:06:43;;;;;;;19.55;15.13;;;18.50;99.90;;;;;;5032430;28;20048;-62
2022/08/28 08:09:13;;;;;;;18.60;14.80;;;18.60;99.90;;;;;;5032860;28;20151;-62
2022/08/28 08:11:41;;;;;;;17.70;13.57;;;18.60;99.90;;;;;;5050558;28;20048;-66
2022/08/28 08:14:08;;;;;;;15.13;12.65;;;18.70;99.90;;;;;;5035468;28;20727;-61
2022/08/28 08:16:38;;;;;;;15.25;11.75;;;18.70;99.90;;;;;;5052794;28;20044;-60
2022/08/28 08:19:08;;;;;;;14.63;11.75;;;18.70;99.90;;;;;;5053741;28;20499;-61
2022/08/28 08:21:36;;;;;;;14.20;11.48;;;18.80;99.90;;;;;;5053229;28;20098;-61
2022/08/28 08:24:03;;;;;;;12.60;10.93;;;18.80;99.90;;;;;;5053277;28;20516;-59
2022/08/28 08:26:30;;;;;;;14.88;10.95;;;18.90;99.90;;;;;;5053907;28;20036;-61
2022/08/28 08:28:57;;;;;;;16.77;11.02;;;19.00;99.90;;;;;;5053110;28;20055;-62
2022/08/28 08:31:28;;;;;;;15.07;12.57;;;19.00;99.90;;;;;;5053892;28;20056;-61
2022/08/28 08:34:00;;;;;;;15.30;11.65;;;19.10;99.90;;;;;;5052822;28;20113;-60
2022/08/28 08:36:28;;;;;;;15.43;12.55;;;19.10;99.90;;;;;;5052685;28;20064;-58
2022/08/28 08:38:57;;;;;;;17.58;12.48;;;19.20;99.90;;;;;;5052771;28;20143;-61
2022/08/28 08:41:47;;;;;;;15.00;12.18;;;19.30;99.90;;;;;;5052087;28;20048;-61
2022/08/28 08:44:24;;;;;;;13.82;10.48;;;19.30;99.90;;;;;;5054186;28;20086;-61
2022/08/28 08:47:05;;;;;;;14.40;11.30;;;19.40;99.90;;;;;;5052099;28;20064;-62
2022/08/28 08:49:40;;;;;;;14.38;10.25;;;19.40;99.90;;;;;;5052486;28;20051;-62
2022/08/28 08:52:10;;;;;;;16.60;11.35;;;19.50;99.90;;;;;;5054073;28;20051;-61
2022/08/28 08:55:08;;;;;;;15.55;11.77;;;19.60;99.90;;;;;;5053290;28;20123;-60
2022/08/28 08:57:37;;;;;;;14.85;11.98;;;19.70;99.90;;;;;;5053752;28;20048;-61
2022/08/28 09:00:07;;;;;;;13.55;11.18;;;19.80;99.90;;;;;;5049122;28;20045;-62
2022/08/28 09:02:57;;;;;;;15.27;12.07;;;19.80;99.90;;;;;;5031472;28;20143;-62
2022/08/28 09:05:45;;;;;;;12.55;11.13;;;19.80;99.90;;;;;;5033576;28;20035;-60
2022/08/28 09:08:32;;;;;;;17.83;11.98;;;19.80;99.90;;;;;;5033646;28;20051;-62
2022/08/28 09:11:12;;;;;;;17.92;12.02;;;19.90;99.90;;;;;;5043655;28;20090;-61
2022/08/28 09:14:19;;;;;;;15.90;12.55;;;19.90;99.90;;;;;;5051900;28;20076;-60
2022/08/28 09:16:54;;;;;;;12.82;11.30;;;20.00;99.90;;;;;;5052490;28;20105;-62
2022/08/28 09:19:21;;;;;;;15.43;12.15;;;20.10;99.90;;;;;;5052223;28;20101;-63
2022/08/28 09:21:50;;;;;;;13.93;11.23;;;20.10;99.90;;;;;;5051563;28;20045;-62
2022/08/28 09:24:25;;;;;;;14.68;11.90;;;20.20;99.90;;;;;;5053267;28;20048;-60
2022/08/28 09:27:06;;;;;;;19.05;13.25;;;20.30;99.90;;;;;;5053069;28;20041;-59
2022/08/28 09:29:45;;;;;;;14.95;12.00;;;20.40;99.90;;;;;;5053715;28;20041;-61
2022/08/28 09:32:28;;;;;;;14.82;11.52;;;20.60;99.90;;;;;;5053421;28;20068;-62
2022/08/28 09:35:23;;;;;;;15.82;11.63;;;20.80;99.90;;;;;;5053342;28;20044;-62
2022/08/28 09:37:50;;;;;;;18.02;10.48;;;21.20;99.90;;;;;;5049289;28;20049;-61
2022/08/28 09:43:25;;;;;;;17.45;11.65;;;21.60;99.90;;;;;;5035481;28;20144;-59
2022/08/28 09:43:26;;;;;;;12.82;10.95;;;22.10;99.90;;;;;;5052001;28;20068;-60
2022/08/28 09:46:01;;;;;;;13.77;10.48;;;22.30;99.90;;;;;;5053018;28;20514;-61
2022/08/28 09:48:42;;;;;;;11.52;9.77;;;22.50;99.90;;;;;;5053633;28;20124;-61
2022/08/28 09:51:21;;;;;;;12.57;10.35;;;22.80;99.90;;;;;;5051161;28;20144;-60
2022/08/28 09:53:51;;;;;;;14.65;12.05;;;23.00;99.90;;;;;;5051703;28;20068;-60
2022/08/28 09:56:33;;;;;;;13.32;9.82;;;23.00;99.90;;;;;;5052685;28;20117;-59
2022/08/28 09:59:07;;;;;;;13.23;10.65;;;23.00;99.90;;;;;;5053886;28;20040;-59
2022/08/28 10:01:40;;;;;;;14.85;9.98;;;23.30;99.90;;;;;;5044738;28;20151;-62
2022/08/28 10:04:16;;;;;;;10.57;8.73;;;23.70;99.90;;;;;;5053918;28;20136;-61
2022/08/28 10:07:25;;;;;;;12.38;9.68;;;24.00;99.90;;;;;;5056711;28;20528;-61
2022/08/28 10:10:02;;;;;;;;;;;24.00;99.90;;;;;;5057770;28;20139;-61
2022/08/28 10:12:59;;;;;;;14.23;10.82;;;23.80;99.90;;;;;;5054640;28;19976;-61
2022/08/28 10:15:40;;;;;;;12.23;9.05;;;23.80;99.90;;;;;;5056799;28;20055;-60
2022/08/28 10:18:16;;;;;;;13.65;9.30;;;23.90;99.90;;;;;;5056048;28;20717;-60
2022/08/28 10:21:11;;;;;;;10.07;8.63;;;24.00;99.90;;;;;;5056804;28;20114;-60
2022/08/28 10:24:11;;;;;;;11.90;9.50;;;24.00;99.90;;;;;;5054720;28;20817;-60
2022/08/28 10:26:54;;;;;;;8.63;7.72;;;24.00;99.90;;;;;;5056198;28;20063;-61
2022/08/28 10:29:58;;;;;;;16.05;9.80;;;24.20;99.90;;;;;;5054807;28;20487;-61
2022/08/28 10:32:44;;;;;;;9.10;7.53;;;24.30;99.90;;;;;;5056127;28;20108;-62
2022/08/28 10:35:17;;;;;;;13.25;7.75;;;24.40;99.90;;;;;;5054407;28;20048;-61
2022/08/28 10:38:15;;;;;;;9.02;7.60;;;24.40;99.90;;;;;;5054170;28;20457;-61
2022/08/28 10:41:03;;;;;;;8.88;7.85;;;24.20;99.90;;;;;;5049407;28;20053;-61
2022/08/28 10:43:36;;;;;;;7.88;6.88;;;24.40;99.90;;;;;;5055353;28;20056;-61
2022/08/28 10:46:09;;;;;;;12.02;8.02;;;24.70;99.90;;;;;;5056497;28;20064;-61
2022/08/28 10:48:45;;;;;;;8.52;7.63;;;25.00;99.90;;;;;;5055893;28;20044;-60
2022/08/28 10:51:37;;;;;;;7.30;6.05;;;25.40;99.90;;;;;;5054409;28;20499;-61
2022/08/28 10:54:22;;;;;;;;;;;25.50;99.90;;;;;;5054531;28;20056;-60
2022/08/28 10:57:23;;;;;;;8.65;6.72;;;25.40;99.90;;;;;;5055891;28;19928;-60
2022/08/28 10:59:53;;;;;;;9.75;7.70;;;25.40;99.90;;;;;;5055231;28;20102;-62
2022/08/28 11:02:23;;;;;;;11.13;7.78;;;25.50;99.90;;;;;;5031195;28;20051;-61
2022/08/28 11:04:52;;;;;;;14.52;7.55;;;25.70;99.90;;;;;;5034179;28;20045;-61
2022/08/28 11:07:48;;;;;;;8.85;7.72;;;25.80;99.90;;;;;;5035823;28;20503;-61
2022/08/28 11:10:18;;;;;;;7.93;7.15;;;25.90;99.90;;;;;;5039755;28;20047;-61
2022/08/28 11:12:47;;;;;;;10.20;7.45;;;26.10;99.90;;;;;;5055040;28;20051;-63
2022/08/28 11:15:26;;;;;;;6.47;5.82;;;26.20;99.90;;;;;;5053769;28;20334;-62
2022/08/28 11:18:14;;;;;;;9.35;6.05;;;26.30;99.90;;;;;;5055028;28;20076;-62
2022/08/28 11:20:55;;;;;;;6.80;4.78;;;26.50;99.90;;;;;;5055425;28;20076;-61
2022/08/28 11:23:40;;;;;;;6.75;5.30;;;26.60;99.90;;;;;;5052528;28;20479;-59
2022/08/28 11:26:11;;;;;;;6.65;5.20;;;26.80;99.90;;;;;;5055409;28;20682;-61
2022/08/28 11:28:46;;;;;;;7.50;4.50;;;26.90;99.90;;;;;;5054977;28;20044;-61
2022/08/28 11:31:12;;;;;;;7.82;4.47;;;27.10;99.90;;;;;;5055333;28;20041;-62
2022/08/28 11:33:57;;;;;;;8.23;4.90;;;27.20;97.30;;;;;;5053364;28;20056;-61
2022/08/28 11:36:26;;;;;;;5.10;4.60;;;27.20;97.40;;;;;;5053644;28;20803;-62
2022/08/28 11:38:53;;;;;;;6.30;4.93;;;27.30;95.70;;;;;;5054701;28;20892;-62
2022/08/28 11:41:29;;;;;;;10.60;5.53;;;27.30;96.80;;;;;;5054965;28;20704;-63
2022/08/28 11:44:08;;;;;;;4.88;4.35;;;27.40;97.20;;;;;;5054684;28;20064;-63
2022/08/28 11:47:15;;;;;;;8.60;4.55;;;27.40;95.60;;;;;;5055233;28;20040;-62
2022/08/28 11:49:43;;;;;;;7.63;4.40;;;27.60;94.60;;;;;;5052835;28;20041;-61
2022/08/28 11:52:22;;;;;;;7.00;5.32;;;27.70;93.10;;;;;;5054993;28;20552;-62
2022/08/28 11:55:21;;;;;;;8.32;4.47;;;27.70;92.90;;;;;;5053057;28;20581;-62
2022/08/28 11:58:13;;;;;;;10.55;4.72;;;27.70;90.40;;;;;;5055298;28;20078;-62
2022/08/28 12:01:18;;;;;;;4.70;4.13;;;27.60;90.10;;;;;;5054825;28;20042;-62
2022/08/28 12:03:59;;;;;;;4.88;4.28;;;27.50;88.70;;;;;;5035465;28;20048;-61
2022/08/28 12:06:51;;;;;;;5.75;4.70;;;27.50;88.60;;;;;;5031999;28;20427;-63
2022/08/28 12:09:37;;;;;;;5.72;4.80;;;27.60;85.00;;;;;;5034861;28;20047;-66
2022/08/28 12:12:09;;;;;;;5.93;4.38;;;27.70;85.20;;;;;;5052837;28;20124;-65
2022/08/28 12:14:39;;;;;;;6.95;4.38;;;27.80;85.80;;;;;;5053684;28;20028;-65
2022/08/28 12:17:19;;;;;;;8.05;5.35;;;27.90;88.50;;;;;;5053407;28;20059;-65
2022/08/28 12:20:25;;;;;;;7.70;4.78;;;27.90;87.90;;;;;;5054153;28;20056;-66
2022/08/28 12:22:55;;;;;;;6.55;4.30;;;27.60;82.10;;;;;;5010563;28;20865;-66
2022/08/28 12:25:39;;;;;;;7.65;5.10;;;27.40;81.50;;;;;;4993641;28;20076;-67
2022/08/28 12:28:28;;;;;;;7.82;5.32;;;27.50;87.90;;;;;;5028955;28;20526;-68
2022/08/28 12:31:04;;;;;;;7.95;4.55;;;27.50;90.80;;;;;;5052825;28;20055;-67
2022/08/28 12:33:47;;;;;;;7.35;5.38;;;27.60;87.00;;;;;;5054519;28;20498;-65
2022/08/28 12:36:17;;;;;;;6.85;5.68;;;27.60;84.10;;;;;;5053670;28;20044;-66
2022/08/28 12:38:52;;;;;;;7.32;4.78;;;27.70;84.70;;;;;;5049046;28;20044;-68
2022/08/28 12:41:21;;;;;;;11.15;5.97;;;27.60;88.10;;;;;;5053641;28;20040;-69
2022/08/28 12:43:52;;;;;;;6.18;4.97;;;27.70;87.10;;;;;;5052056;28;20658;-67
2022/08/28 12:46:39;;;;;;;8.30;4.78;;;27.70;83.60;;;;;;5053818;28;20052;-67
2022/08/28 12:49:29;;;;;;;5.82;5.28;;;27.60;82.80;;;;;;5053555;28;20044;-68
2022/08/28 12:52:15;;;;;;;5.25;4.68;;;27.70;88.10;;;;;;5052386;28;20040;-64
2022/08/28 12:54:44;;;;;;;5.80;5.03;;;27.70;85.50;;;;;;5053613;28;20086;-62
2022/08/28 12:57:14;;;;;;;5.78;5.18;;;27.80;82.60;;;;;;5019094;28;20518;-61
2022/08/28 12:59:44;;;;;;;8.63;5.28;;;27.80;82.00;;;;;;5050912;28;20057;-62
2022/08/28 13:02:26;;;;;;;6.13;4.85;;;27.80;79.80;;;;;;5052839;28;20056;-62
2022/08/28 13:04:53;;;;;;;8.15;5.65;;;27.90;80.40;;;;;;5040079;28;20747;-62